Terminal Aerodrome Forecast
Issued by NWS

Home | Current Version | Previous Version | Text Only | Print | Product List | Glossary On
Versions: 1 2 3 4 5 6 7 8 9 10 11 12 13 14 15 16 17 18
000
FTUS43 KFGF 192000 AAB
TAFBJI
TAF AMD
KBJI 192037Z 1921/2018 29012G17KT P6SM VCSH OVC014
      TEMPO 1921/1922 OVC008
     FM192200 30013G20KT P6SM VCSH OVC018
     FM200200 30013KT P6SM OVC020
     FM201300 30014G21KT P6SM OVC020=

USA.gov is the U.S. government's official web portal to all federal, state and local government web resources and services.